createdAt,value
2022-10-16T00:02:01.162Z,63.23
2022-10-16T00:04:27.984Z,63.38
2022-10-16T00:06:54.726Z,63.73
2022-10-16T00:09:21.430Z,63.97
2022-10-16T00:11:48.138Z,64.07
2022-10-16T00:14:15.406Z,63.81
2022-10-16T00:16:42.449Z,64.27
2022-10-16T00:19:09.657Z,64.37
2022-10-16T00:21:36.312Z,64.35
2022-10-16T00:24:07.533Z,64.44
2022-10-16T00:26:34.634Z,64.77
2022-10-16T00:29:01.418Z,64.70
2022-10-16T00:31:28.119Z,64.89
2022-10-16T00:33:54.846Z,64.97
2022-10-16T00:36:22.778Z,65.02
2022-10-16T00:38:53.989Z,65.31
2022-10-16T00:41:20.965Z,65.10
2022-10-16T00:43:48.440Z,65.25
2022-10-16T00:46:23.587Z,65.52
2022-10-16T00:49:09.581Z,65.15
2022-10-16T00:51:40.647Z,65.12
2022-10-16T00:54:19.004Z,64.94
2022-10-16T00:56:46.206Z,65.13
2022-10-16T00:59:16.606Z,65.18
2022-10-16T01:01:43.290Z,65.04
2022-10-16T01:04:09.985Z,64.96
2022-10-16T01:06:44.512Z,65.05
2022-10-16T01:09:50.897Z,64.88
2022-10-16T01:12:41.206Z,64.51
2022-10-16T01:15:15.843Z,64.26
2022-10-16T01:17:54.802Z,64.17
2022-10-16T01:20:55.500Z,64.28
2022-10-16T01:23:25.108Z,64.43
2022-10-16T01:25:54.654Z,64.37
2022-10-16T01:28:23.805Z,64.37
2022-10-16T01:30:51.388Z,64.12
2022-10-16T01:33:21.287Z,64.31
2022-10-16T01:35:59.891Z,64.50
2022-10-16T01:38:40.376Z,64.43
2022-10-16T01:41:25.912Z,64.50
2022-10-16T01:43:58.112Z,64.44
2022-10-16T01:46:24.881Z,64.63
2022-10-16T01:48:51.610Z,64.59
2022-10-16T01:51:18.323Z,64.51
2022-10-16T01:53:47.720Z,65.11
2022-10-16T01:56:14.495Z,65.40
2022-10-16T01:58:43.607Z,65.45
2022-10-16T02:01:10.834Z,65.89
2022-10-16T02:03:38.379Z,65.98
2022-10-16T02:06:05.030Z,66.27
2022-10-16T02:08:31.859Z,66.26
2022-10-16T02:10:58.656Z,66.63
2022-10-16T02:13:35.745Z,66.93
2022-10-16T02:16:02.463Z,67.35
2022-10-16T02:18:30.372Z,67.42
2022-10-16T02:21:20.210Z,67.84
2022-10-16T02:24:10.613Z,67.86
2022-10-16T02:26:55.723Z,68.08
2022-10-16T02:29:24.942Z,68.18
2022-10-16T02:32:02.482Z,68.02
2022-10-16T02:34:29.220Z,68.40
2022-10-16T02:36:56.053Z,68.91
2022-10-16T02:39:22.938Z,69.07
2022-10-16T02:41:49.715Z,68.97
2022-10-16T02:44:16.393Z,69.25
2022-10-16T02:46:43.104Z,69.43
2022-10-16T02:49:09.779Z,69.69
2022-10-16T02:51:36.545Z,69.81
2022-10-16T02:54:03.650Z,69.86
2022-10-16T02:56:31.041Z,70.13
2022-10-16T02:58:58.223Z,70.35
2022-10-16T03:01:25.405Z,70.34
2022-10-16T03:03:52.099Z,70.41
2022-10-16T03:06:18.783Z,70.43
2022-10-16T03:08:45.443Z,70.81
2022-10-16T03:11:12.166Z,70.59
2022-10-16T03:13:38.861Z,70.78
2022-10-16T03:16:05.560Z,70.86
2022-10-16T03:18:32.251Z,70.96
2022-10-16T03:20:59.006Z,71.21
2022-10-16T03:23:25.709Z,71.52
2022-10-16T03:25:52.535Z,71.31
2022-10-16T03:28:19.280Z,71.84
2022-10-16T03:30:46.124Z,71.74
2022-10-16T03:33:12.764Z,71.85
2022-10-16T03:35:39.476Z,71.88
2022-10-16T03:38:06.225Z,72.25
2022-10-16T03:40:33.256Z,72.64
2022-10-16T03:43:00.258Z,73.31
2022-10-16T03:45:28.237Z,73.47
2022-10-16T03:47:54.959Z,73.82
2022-10-16T03:50:21.658Z,73.37
2022-10-16T03:52:48.530Z,73.65
2022-10-16T03:55:15.205Z,73.90
2022-10-16T03:57:41.919Z,73.88
2022-10-16T04:00:09.292Z,73.99
2022-10-16T04:02:38.976Z,74.09
2022-10-16T04:05:05.888Z,73.87
2022-10-16T04:07:32.486Z,73.87
2022-10-16T04:10:00.116Z,73.87
2022-10-16T04:12:27.604Z,73.89
2022-10-16T04:14:54.282Z,73.71
2022-10-16T04:17:21.030Z,73.83
2022-10-16T04:19:47.724Z,74.10
2022-10-16T04:22:14.512Z,74.02
2022-10-16T04:24:41.188Z,73.88
2022-10-16T04:27:07.854Z,73.94
2022-10-16T04:29:34.559Z,74.22
2022-10-16T04:32:01.300Z,74.17
2022-10-16T04:34:27.979Z,74.08
2022-10-16T04:36:54.678Z,74.24
2022-10-16T04:39:21.452Z,74.40
2022-10-16T04:41:48.144Z,74.65
2022-10-16T04:44:14.912Z,74.66
2022-10-16T04:46:41.710Z,75.03
2022-10-16T04:49:08.424Z,75.16
2022-10-16T04:51:35.103Z,75.34
2022-10-16T04:54:01.832Z,75.21
2022-10-16T04:56:28.592Z,75.47
2022-10-16T04:58:55.291Z,75.41
2022-10-16T05:01:22.070Z,75.43
2022-10-16T05:03:48.826Z,75.76
2022-10-16T05:06:15.525Z,76.02
2022-10-16T05:08:42.256Z,76.17
2022-10-16T05:11:09.069Z,76.53
2022-10-16T05:13:35.718Z,76.91
2022-10-16T05:16:02.540Z,77.00
2022-10-16T05:18:29.243Z,77.02
2022-10-16T05:20:55.947Z,76.86
2022-10-16T05:23:22.672Z,77.12
2022-10-16T05:25:56.446Z,77.32
2022-10-16T05:28:23.202Z,77.15
2022-10-16T05:30:49.911Z,77.05
2022-10-16T05:33:16.700Z,76.73
2022-10-16T05:35:43.493Z,76.73
2022-10-16T05:38:10.242Z,76.44
2022-10-16T05:40:36.967Z,76.07
2022-10-16T05:43:03.756Z,75.87
2022-10-16T05:45:30.479Z,75.24
2022-10-16T05:47:57.183Z,75.06
2022-10-16T05:50:23.899Z,74.61
2022-10-16T05:52:50.620Z,74.02
2022-10-16T05:55:17.301Z,73.51
2022-10-16T05:57:44.265Z,73.03
2022-10-16T06:00:11.333Z,72.71
2022-10-16T06:02:40.633Z,71.65
2022-10-16T06:05:07.503Z,71.66
2022-10-16T06:07:37.277Z,71.00
2022-10-16T06:10:04.962Z,70.66
2022-10-16T06:12:31.652Z,70.17
2022-10-16T06:14:58.677Z,69.75
2022-10-16T06:17:25.634Z,69.53
2022-10-16T06:19:52.550Z,68.99
2022-10-16T06:22:19.241Z,68.55
2022-10-16T06:26:43.277Z,68.32
2022-10-16T06:29:10.054Z,67.67
2022-10-16T06:31:36.857Z,67.53
2022-10-16T06:34:05.786Z,67.45
2022-10-16T06:36:32.784Z,67.07
2022-10-16T06:38:59.636Z,66.85
2022-10-16T06:41:26.234Z,66.35
2022-10-16T06:43:53.351Z,65.69
2022-10-16T06:46:22.081Z,65.41
2022-10-16T06:48:48.798Z,65.42
2022-10-16T06:51:19.564Z,65.32
2022-10-16T06:54:06.134Z,65.22
2022-10-16T06:56:33.539Z,64.89
2022-10-16T06:59:00.585Z,64.78
2022-10-16T07:01:28.296Z,64.48
2022-10-16T07:03:55.031Z,63.99
2022-10-16T07:06:23.309Z,63.87
2022-10-16T07:08:50.356Z,63.88
2022-10-16T07:11:17.975Z,63.90
2022-10-16T07:13:45.100Z,63.81
2022-10-16T07:16:17.111Z,63.81
2022-10-16T07:18:46.180Z,63.71
2022-10-16T07:21:17.588Z,63.54
2022-10-16T07:23:44.398Z,63.21
2022-10-16T07:26:11.494Z,63.07
2022-10-16T07:28:38.823Z,62.96
2022-10-16T07:31:14.512Z,62.39
2022-10-16T07:33:42.832Z,62.04
2022-10-16T07:36:12.465Z,62.01
2022-10-16T07:38:43.299Z,61.88
2022-10-16T07:41:14.859Z,61.52
2022-10-16T07:43:41.761Z,61.43
2022-10-16T07:46:08.475Z,61.21
2022-10-16T07:48:35.435Z,60.86
2022-10-16T07:51:03.738Z,60.69
2022-10-16T07:53:30.469Z,60.61
2022-10-16T07:56:01.007Z,60.34
2022-10-16T07:58:28.964Z,60.03
2022-10-16T08:00:56.675Z,59.82
2022-10-16T08:03:24.316Z,59.94
2022-10-16T08:05:51.255Z,59.70
2022-10-16T08:08:18.438Z,59.43
2022-10-16T08:10:45.176Z,59.17
2022-10-16T08:13:11.946Z,58.99
2022-10-16T08:15:38.659Z,58.98
2022-10-16T08:18:05.844Z,58.62
2022-10-16T08:20:32.753Z,58.63
2022-10-16T08:23:00.409Z,58.80
2022-10-16T08:25:27.302Z,58.41
2022-10-16T08:27:54.024Z,58.24
2022-10-16T08:30:21.601Z,57.87
2022-10-16T08:32:48.487Z,57.59
2022-10-16T08:35:15.880Z,57.53
2022-10-16T08:37:42.688Z,57.32
2022-10-16T08:40:20.941Z,57.02
2022-10-16T08:43:09.807Z,56.81
2022-10-16T08:45:40.284Z,56.89
2022-10-16T08:48:13.234Z,56.60
2022-10-16T08:50:40.760Z,56.42
2022-10-16T08:53:07.576Z,55.78
2022-10-16T08:55:47.617Z,55.17
2022-10-16T08:58:19.476Z,54.68
2022-10-16T09:00:55.192Z,54.16
2022-10-16T09:03:24.715Z,53.86
2022-10-16T09:06:06.704Z,53.69
2022-10-16T09:08:52.343Z,54.00
2022-10-16T09:11:26.510Z,53.81
2022-10-16T09:14:12.376Z,54.15
2022-10-16T09:16:42.595Z,54.10
2022-10-16T09:19:09.270Z,53.77
2022-10-16T09:21:40.618Z,53.63
2022-10-16T09:24:18.207Z,53.85
2022-10-16T09:26:45.222Z,53.36
2022-10-16T09:29:13.840Z,53.34
2022-10-16T09:31:40.796Z,53.88
2022-10-16T09:34:07.637Z,53.69
2022-10-16T09:36:42.213Z,53.43
2022-10-16T09:39:10.520Z,52.60
2022-10-16T09:41:38.344Z,53.04
2022-10-16T09:44:06.235Z,52.80
2022-10-16T09:46:34.631Z,52.84
2022-10-16T09:49:21.919Z,52.82
2022-10-16T09:51:48.648Z,52.62
2022-10-16T09:54:17.174Z,52.54
2022-10-16T09:56:46.623Z,52.38
2022-10-16T09:59:17.389Z,53.02
2022-10-16T10:01:45.360Z,53.57
2022-10-16T10:04:12.135Z,53.44
2022-10-16T10:06:42.118Z,53.12
2022-10-16T10:09:21.688Z,52.80
2022-10-16T10:11:55.365Z,52.68
2022-10-16T10:14:27.678Z,52.72
2022-10-16T10:17:22.968Z,52.57
2022-10-16T10:19:51.754Z,52.21
2022-10-16T10:22:28.422Z,51.77
2022-10-16T10:25:04.523Z,51.97
2022-10-16T10:27:38.749Z,51.32
2022-10-16T10:30:22.099Z,51.35
2022-10-16T10:33:13.085Z,51.51
2022-10-16T10:35:52.423Z,51.81
2022-10-16T10:38:31.449Z,51.64
2022-10-16T10:41:15.156Z,51.56
2022-10-16T10:44:16.241Z,51.70
2022-10-16T10:46:45.810Z,51.93
2022-10-16T10:49:34.615Z,51.81
2022-10-16T10:52:13.712Z,51.57
2022-10-16T10:54:55.332Z,51.59
2022-10-16T10:57:30.772Z,51.69
2022-10-16T11:00:29.587Z,51.21
2022-10-16T11:03:40.883Z,50.92
2022-10-16T11:06:18.287Z,50.69
2022-10-16T11:08:51.745Z,50.65
2022-10-16T11:11:36.355Z,50.72
2022-10-16T11:14:20.688Z,50.39
2022-10-16T11:17:12.918Z,50.39
2022-10-16T11:19:43.736Z,50.81
2022-10-16T11:22:23.750Z,50.91
2022-10-16T11:25:14.780Z,50.56
2022-10-16T11:27:50.201Z,50.28
2022-10-16T11:30:20.969Z,50.58
2022-10-16T11:32:59.628Z,50.37
2022-10-16T11:35:34.820Z,50.00
2022-10-16T11:38:01.743Z,50.14
2022-10-16T11:40:37.040Z,50.08
2022-10-16T11:43:18.530Z,49.90
2022-10-16T11:45:51.477Z,50.00
2022-10-16T11:48:37.797Z,50.37
2022-10-16T11:51:13.455Z,50.33
2022-10-16T11:53:57.761Z,50.12
2022-10-16T11:56:24.464Z,49.77
2022-10-16T11:59:01.668Z,50.16
2022-10-16T12:01:34.545Z,50.43
2022-10-16T12:04:16.102Z,50.31
2022-10-16T12:06:58.916Z,50.76
2022-10-16T12:09:30.219Z,50.25
2022-10-16T12:11:57.089Z,50.29
2022-10-16T12:14:33.042Z,50.44
2022-10-16T12:17:01.202Z,50.49
2022-10-16T12:19:29.512Z,50.33
2022-10-16T12:22:03.057Z,50.32
2022-10-16T12:24:41.880Z,50.02
2022-10-16T12:27:32.258Z,49.80
2022-10-16T12:30:03.745Z,49.93
2022-10-16T12:32:46.210Z,50.04
2022-10-16T12:35:22.279Z,50.10
2022-10-16T12:37:49.073Z,50.37
2022-10-16T12:40:27.006Z,49.57
2022-10-16T12:42:53.758Z,49.38
2022-10-16T12:45:29.428Z,49.23
2022-10-16T12:47:56.785Z,49.19
2022-10-16T12:50:34.655Z,49.18
2022-10-16T12:53:02.252Z,49.18
2022-10-16T12:55:44.544Z,49.55
2022-10-16T12:58:11.279Z,49.84
2022-10-16T13:00:47.296Z,50.11
2022-10-16T13:03:23.127Z,49.84
2022-10-16T13:05:59.700Z,49.72
2022-10-16T13:09:03.687Z,49.76
2022-10-16T13:11:43.855Z,49.72
2022-10-16T13:14:22.781Z,50.05
2022-10-16T13:17:14.099Z,50.14
2022-10-16T13:19:56.053Z,50.74
2022-10-16T13:22:24.969Z,50.29
2022-10-16T13:24:54.639Z,50.06
2022-10-16T13:27:27.943Z,50.18
2022-10-16T13:30:00.900Z,50.32
2022-10-16T13:32:27.636Z,50.19
2022-10-16T13:34:55.244Z,50.30
2022-10-16T13:37:24.546Z,50.41
2022-10-16T13:39:54.425Z,50.31
2022-10-16T13:42:28.569Z,50.65
2022-10-16T13:44:56.005Z,50.54
2022-10-16T13:47:27.498Z,50.62
2022-10-16T13:50:07.960Z,50.80
2022-10-16T13:52:34.832Z,50.71
2022-10-16T13:55:02.392Z,51.04
2022-10-16T13:57:29.707Z,51.07
2022-10-16T13:59:56.456Z,51.39
2022-10-16T14:02:30.964Z,51.16
2022-10-16T14:04:57.708Z,51.32
2022-10-16T14:07:26.258Z,51.44
2022-10-16T14:09:53.349Z,51.50
2022-10-16T14:12:21.910Z,51.54
2022-10-16T14:14:52.379Z,51.56
2022-10-16T14:17:39.602Z,51.66
2022-10-16T14:20:07.446Z,51.85
2022-10-16T14:22:36.182Z,52.39
2022-10-16T14:25:17.778Z,52.07
2022-10-16T14:27:44.590Z,52.02
2022-10-16T14:30:23.594Z,52.21
2022-10-16T14:32:55.088Z,52.34
2022-10-16T14:35:35.831Z,52.49
2022-10-16T14:38:03.648Z,52.49
2022-10-16T14:40:32.195Z,52.80
2022-10-16T14:42:59.029Z,52.74
2022-10-16T14:45:27.368Z,52.88
2022-10-16T14:47:56.307Z,53.77
2022-10-16T14:50:23.278Z,54.19
2022-10-16T14:52:50.060Z,54.81
2022-10-16T14:55:16.779Z,54.97
2022-10-16T14:57:44.053Z,54.71
2022-10-16T15:00:14.951Z,54.81
2022-10-16T15:02:41.752Z,55.19
2022-10-16T15:05:16.227Z,55.58
2022-10-16T15:07:43.127Z,56.09
2022-10-16T15:10:10.162Z,56.68
2022-10-16T15:12:36.924Z,56.88
2022-10-16T15:15:09.528Z,57.52
2022-10-16T15:17:36.265Z,58.20
2022-10-16T15:20:02.965Z,58.80
2022-10-16T15:22:29.666Z,59.31
2022-10-16T15:24:56.348Z,59.71
2022-10-16T15:27:23.486Z,60.31
2022-10-16T15:29:50.185Z,60.67
2022-10-16T15:32:16.882Z,60.92
2022-10-16T15:34:43.578Z,61.48
2022-10-16T15:37:10.232Z,61.60
2022-10-16T15:39:40.563Z,61.80
2022-10-16T15:42:08.471Z,61.79
2022-10-16T15:44:35.163Z,61.55
2022-10-16T15:47:02.437Z,61.27
2022-10-16T15:49:29.115Z,61.09
2022-10-16T15:51:56.028Z,60.87
2022-10-16T15:54:23.775Z,60.50
2022-10-16T15:56:50.453Z,60.20
2022-10-16T15:59:17.260Z,60.01
2022-10-16T16:01:44.045Z,59.88
2022-10-16T16:04:20.070Z,59.78
2022-10-16T16:06:57.499Z,59.60
2022-10-16T16:09:24.170Z,59.50
2022-10-16T16:11:52.216Z,59.52
2022-10-16T16:14:18.912Z,59.56
2022-10-16T16:16:45.635Z,59.61
2022-10-16T16:19:12.362Z,59.70
2022-10-16T16:21:39.297Z,59.61
2022-10-16T16:24:09.257Z,59.65
2022-10-16T16:26:38.579Z,59.69
2022-10-16T16:29:05.350Z,59.75
2022-10-16T16:31:32.341Z,59.95
2022-10-16T16:33:59.070Z,60.02
2022-10-16T16:36:25.879Z,60.00
2022-10-16T16:38:52.547Z,60.13
2022-10-16T16:41:24.817Z,60.26
2022-10-16T16:43:54.486Z,60.35
2022-10-16T16:46:21.651Z,60.60
2022-10-16T16:48:50.876Z,60.76
2022-10-16T16:51:19.177Z,60.92
2022-10-16T16:53:50.766Z,61.00
2022-10-16T16:56:17.825Z,61.28
2022-10-16T16:58:48.704Z,61.45
2022-10-16T17:01:19.819Z,61.70
2022-10-16T17:03:47.279Z,61.96
2022-10-16T17:06:14.066Z,62.11
2022-10-16T17:08:40.774Z,62.49
2022-10-16T17:11:07.636Z,62.80
2022-10-16T17:13:38.418Z,63.16
2022-10-16T17:16:06.017Z,63.33
2022-10-16T17:18:32.947Z,63.62
2022-10-16T17:21:00.497Z,63.88
2022-10-16T17:23:27.289Z,64.10
2022-10-16T17:25:53.973Z,64.54
2022-10-16T17:28:20.725Z,64.64
2022-10-16T17:30:47.380Z,64.80
2022-10-16T17:33:14.472Z,64.90
2022-10-16T17:35:42.891Z,64.92
2022-10-16T17:38:10.114Z,65.02
2022-10-16T17:40:36.983Z,65.03
2022-10-16T17:43:03.694Z,65.16
2022-10-16T17:45:30.763Z,65.19
2022-10-16T17:48:00.716Z,65.15
2022-10-16T17:50:27.466Z,65.11
2022-10-16T17:52:54.156Z,65.01
2022-10-16T17:55:24.919Z,64.87
2022-10-16T17:57:53.883Z,64.81
2022-10-16T18:00:20.614Z,64.88
2022-10-16T18:02:49.790Z,64.91
2022-10-16T18:05:16.602Z,64.94
2022-10-16T18:07:43.249Z,64.72
2022-10-16T18:10:12.110Z,64.73
2022-10-16T18:12:38.993Z,64.54
2022-10-16T18:15:06.133Z,64.38
2022-10-16T18:17:37.665Z,64.02
2022-10-16T18:20:08.166Z,63.74
2022-10-16T18:22:36.147Z,63.29
2022-10-16T18:25:05.264Z,62.88
2022-10-16T18:27:33.043Z,62.65
2022-10-16T18:30:00.237Z,62.23
2022-10-16T18:32:27.451Z,62.02
2022-10-16T18:34:54.706Z,61.67
2022-10-16T18:37:21.558Z,61.62
2022-10-16T18:39:51.284Z,61.58
2022-10-16T18:43:38.614Z,61.73
2022-10-16T18:46:07.251Z,61.55
2022-10-16T18:48:34.228Z,61.58
2022-10-16T18:51:11.529Z,61.64
2022-10-16T18:53:38.546Z,61.86
2022-10-16T18:56:05.649Z,61.91
2022-10-16T18:58:34.120Z,61.91
2022-10-16T19:01:09.527Z,62.01
2022-10-16T19:03:36.559Z,62.04
2022-10-16T19:06:03.778Z,62.34
2022-10-16T19:08:32.291Z,62.28
2022-10-16T19:11:05.906Z,62.32
2022-10-16T19:13:32.707Z,62.32
2022-10-16T19:16:09.466Z,62.35
2022-10-16T19:18:45.869Z,62.33
2022-10-16T19:21:12.925Z,62.24
2022-10-16T19:23:39.808Z,62.15
2022-10-16T19:26:07.366Z,61.87
2022-10-16T19:28:34.232Z,61.77
2022-10-16T19:31:02.150Z,61.71
2022-10-16T19:33:28.883Z,61.55
2022-10-16T19:35:55.634Z,61.69
2022-10-16T19:38:22.282Z,61.62
2022-10-16T19:40:49.082Z,61.61
2022-10-16T19:43:15.686Z,61.65
2022-10-16T19:45:42.367Z,61.80
2022-10-16T19:48:09.166Z,61.75
2022-10-16T19:50:35.813Z,61.79
2022-10-16T19:53:02.564Z,61.89
2022-10-16T19:55:30.845Z,61.99
2022-10-16T19:57:57.565Z,61.77
2022-10-16T20:00:24.261Z,61.84
2022-10-16T20:02:50.940Z,62.01
2022-10-16T20:05:17.645Z,62.13
2022-10-16T20:07:44.385Z,62.04
2022-10-16T20:10:11.098Z,62.17
2022-10-16T20:12:37.756Z,62.24
2022-10-16T20:15:05.079Z,62.13
2022-10-16T20:17:31.776Z,61.81
2022-10-16T20:19:58.461Z,61.82
2022-10-16T20:22:25.249Z,62.14
2022-10-16T20:24:51.845Z,62.05
2022-10-16T20:27:18.546Z,62.25
2022-10-16T20:29:45.230Z,62.33
2022-10-16T20:32:12.035Z,62.44
2022-10-16T20:34:39.700Z,62.47
2022-10-16T20:37:06.403Z,62.54
2022-10-16T20:39:33.212Z,62.65
2022-10-16T20:41:59.956Z,62.45
2022-10-16T20:44:26.630Z,62.56
2022-10-16T20:46:55.164Z,62.17
2022-10-16T20:49:39.213Z,62.20
2022-10-16T20:52:06.759Z,62.22
2022-10-16T20:54:33.478Z,62.26
2022-10-16T20:57:00.130Z,62.04
2022-10-16T20:59:26.875Z,62.07
2022-10-16T21:01:53.616Z,62.00
2022-10-16T21:04:20.496Z,62.16
2022-10-16T21:06:47.071Z,62.35
2022-10-16T21:09:13.765Z,62.44
2022-10-16T21:11:40.495Z,62.57
2022-10-16T21:14:07.396Z,62.46
2022-10-16T21:16:34.511Z,62.61
2022-10-16T21:19:01.332Z,62.74
2022-10-16T21:21:28.850Z,62.74
2022-10-16T21:23:56.546Z,62.86
2022-10-16T21:26:26.366Z,62.61
2022-10-16T21:28:54.336Z,62.79
2022-10-16T21:31:22.325Z,62.71
2022-10-16T21:33:49.586Z,62.89
2022-10-16T21:36:21.232Z,62.86
2022-10-16T21:38:48.057Z,62.99
2022-10-16T21:41:15.664Z,63.01
2022-10-16T21:43:42.542Z,63.22
2022-10-16T21:46:09.147Z,63.16
2022-10-16T21:48:35.865Z,63.30
2022-10-16T21:51:02.617Z,63.19
2022-10-16T21:53:29.330Z,63.28
2022-10-16T21:55:56.000Z,63.50
2022-10-16T21:58:22.740Z,63.40
2022-10-16T22:00:49.375Z,63.46
2022-10-16T22:03:16.046Z,63.47
2022-10-16T22:05:42.722Z,63.62
2022-10-16T22:08:09.413Z,63.60
2022-10-16T22:10:36.090Z,63.61
2022-10-16T22:13:02.833Z,63.95
2022-10-16T22:15:29.607Z,63.90
2022-10-16T22:17:56.255Z,64.09
2022-10-16T22:20:22.957Z,64.36
2022-10-16T22:22:49.617Z,64.51
2022-10-16T22:25:16.271Z,64.60
2022-10-16T22:27:42.988Z,65.01
2022-10-16T22:30:10.102Z,64.92
2022-10-16T22:32:36.817Z,65.15
2022-10-16T22:35:03.643Z,65.32
2022-10-16T22:37:30.492Z,65.38
2022-10-16T22:39:59.004Z,65.78
2022-10-16T22:42:27.745Z,66.06
2022-10-16T22:44:54.438Z,66.72
2022-10-16T22:47:21.216Z,66.94
2022-10-16T22:49:48.062Z,67.24
2022-10-16T22:52:14.720Z,67.52
2022-10-16T22:54:41.395Z,67.78
2022-10-16T22:57:08.109Z,67.75
2022-10-16T22:59:34.915Z,68.17
2022-10-16T23:02:01.522Z,68.03
2022-10-16T23:04:28.214Z,68.39
2022-10-16T23:06:54.935Z,68.28
2022-10-16T23:09:22.325Z,68.28
2022-10-16T23:11:49.010Z,68.57
2022-10-16T23:14:21.129Z,68.25
2022-10-16T23:16:48.430Z,68.24
2022-10-16T23:19:15.224Z,68.44
2022-10-16T23:21:41.923Z,68.58
2022-10-16T23:24:08.870Z,68.46
2022-10-16T23:26:35.527Z,68.68
2022-10-16T23:29:02.302Z,68.60
2022-10-16T23:31:29.069Z,68.75
2022-10-16T23:33:56.737Z,69.39
2022-10-16T23:36:23.914Z,69.15
2022-10-16T23:38:50.931Z,69.34
2022-10-16T23:41:18.467Z,69.56
2022-10-16T23:43:45.280Z,69.54
2022-10-16T23:46:12.324Z,69.56
2022-10-16T23:48:39.235Z,69.58
2022-10-16T23:51:06.517Z,69.55
2022-10-16T23:53:33.205Z,69.65
2022-10-16T23:56:00.085Z,69.88
2022-10-16T23:58:26.768Z,69.64
